Time,TemperatureF,DewpointF,PressureIn,WindDirection,WindDirectionDegrees,WindSpeedMPH,WindSpeedGustMPH,Humidity,HourlyPrecipIn,Conditions,Clouds,dailyrainin,SoftwareType,DateUTC
2013-05-20 00:02:00,71.0,-99.9,-100.00,SSW,208,3.0,7.0,-999,0.09,,,0.25,,2013-05-20 05:02:00,
2013-05-20 00:12:00,71.0,-99.9,-100.00,SSW,208,3.0,7.0,-999,0.09,,,0.25,,2013-05-20 05:12:00,
2013-05-20 00:22:00,71.0,-99.9,-100.00,SSW,208,3.0,7.0,-999,0.09,,,0.25,,2013-05-20 05:22:00,
2013-05-20 01:01:00,72.0,-99.9,-100.00,South,190,1.0,5.0,-999,0.01,,,-99.99,,2013-05-20 06:01:00,
2013-05-20 01:11:00,72.0,-99.9,-100.00,South,190,1.0,5.0,-999,0.01,,,-99.99,,2013-05-20 06:11:00,
2013-05-20 01:22:00,72.0,-99.9,-100.00,South,190,1.0,5.0,-999,0.01,,,-99.99,,2013-05-20 06:22:00,
2013-05-20 01:32:00,71.0,-99.9,-100.00,SE,134,7.0,10.0,-999,0.00,,,0.26,,2013-05-20 06:32:00,
2013-05-20 02:02:00,71.0,-99.9,-100.00,SSE,151,3.0,5.0,-999,-99.99,,,0.26,,2013-05-20 07:02:00,
2013-05-20 02:12:00,71.0,-99.9,-100.00,SSE,151,3.0,5.0,-999,-99.99,,,0.26,,2013-05-20 07:12:00,
2013-05-20 02:22:00,71.0,-99.9,-100.00,SSE,151,3.0,5.0,-999,-99.99,,,0.26,,2013-05-20 07:22:00,
2013-05-20 02:32:00,71.0,-99.9,-100.00,South,177,0.0,1.0,-999,0.00,,,0.26,,2013-05-20 07:32:00,
2013-05-20 03:02:00,72.0,-99.9,-100.00,SSW,205,1.0,2.0,-999,0.00,,,0.26,,2013-05-20 08:02:00,
2013-05-20 03:32:00,72.0,-99.9,-100.00,SSE,152,3.0,6.0,-999,0.01,,,0.27,,2013-05-20 08:32:00,
2013-05-20 04:02:00,71.0,-99.9,-100.00,SSE,147,2.0,5.0,-999,-99.99,,,0.27,,2013-05-20 09:02:00,
2013-05-20 04:12:00,71.0,-99.9,-100.00,SSE,147,2.0,5.0,-999,-99.99,,,0.27,,2013-05-20 09:12:00,
2013-05-20 04:22:00,71.0,-99.9,-100.00,SSE,147,2.0,5.0,-999,-99.99,,,0.27,,2013-05-20 09:22:00,
2013-05-20 04:33:00,71.0,-99.9,-100.00,ESE,116,5.0,7.0,-999,0.00,,,0.27,,2013-05-20 09:33:00,
2013-05-20 05:03:00,71.0,-99.9,-100.00,SE,146,10.0,13.0,-999,0.00,,,0.27,,2013-05-20 10:03:00,
2013-05-20 05:33:00,72.0,-99.9,-100.00,SE,144,9.0,16.0,-999,0.00,,,0.27,,2013-05-20 10:33:00,
2013-05-20 06:00:00,71.0,-99.9,-100.00,South,176,1.0,2.0,-999,0.00,,,0.27,,2013-05-20 11:00:00,
2013-05-20 06:03:00,71.0,-99.9,-100.00,SE,146,7.0,11.0,-999,0.00,,,0.27,,2013-05-20 11:03:00,
2013-05-20 06:12:00,71.0,-99.9,-100.00,SE,146,7.0,11.0,-999,0.00,,,0.27,,2013-05-20 11:12:00,
2013-05-20 06:22:00,71.0,-99.9,-100.00,SE,146,7.0,11.0,-999,0.00,,,0.27,,2013-05-20 11:22:00,
2013-05-20 06:32:00,71.0,-99.9,-100.00,South,176,1.0,2.0,-999,0.00,,,0.27,,2013-05-20 11:32:00,
2013-05-20 06:42:00,71.0,-99.9,-100.00,South,176,1.0,2.0,-999,0.00,,,0.27,,2013-05-20 11:42:00,
2013-05-20 06:52:00,71.0,-99.9,-100.00,South,176,1.0,2.0,-999,0.00,,,0.27,,2013-05-20 11:52:00,
2013-05-20 07:30:00,71.0,-99.9,-100.00,South,173,3.0,4.0,-999,0.00,,,0.23,,2013-05-20 12:30:00,
2013-05-20 07:32:00,71.0,-99.9,-100.00,SSW,204,0.0,1.0,-999,0.00,,,0.24,,2013-05-20 12:32:00,
2013-05-20 08:01:00,71.0,-99.9,-100.00,South,173,3.0,4.0,-999,0.00,,,0.23,,2013-05-20 13:01:00,
2013-05-20 08:11:00,71.0,-99.9,-100.00,South,173,3.0,4.0,-999,0.00,,,0.23,,2013-05-20 13:11:00,
2013-05-20 08:22:00,71.0,-99.9,-100.00,South,173,3.0,4.0,-999,0.00,,,0.23,,2013-05-20 13:22:00,
2013-05-20 09:01:00,73.0,-99.9,-100.00,South,174,3.0,5.0,-999,0.00,,,0.22,,2013-05-20 14:01:00,
2013-05-20 09:11:00,73.0,-99.9,-100.00,South,174,3.0,5.0,-999,0.00,,,0.22,,2013-05-20 14:11:00,
2013-05-20 09:22:00,73.0,-99.9,-100.00,South,174,3.0,5.0,-999,0.00,,,0.22,,2013-05-20 14:22:00,
2013-05-20 09:32:00,74.0,-99.9,-100.00,South,175,3.0,4.0,-999,0.00,,,0.22,,2013-05-20 14:32:00,
2013-05-20 09:42:00,74.0,-99.9,-100.00,South,175,3.0,4.0,-999,0.00,,,0.22,,2013-05-20 14:42:00,
2013-05-20 09:53:00,74.0,-99.9,-100.00,South,175,3.0,4.0,-999,0.00,,,0.22,,2013-05-20 14:53:00,
2013-05-20 10:01:00,75.0,-99.9,-100.00,South,185,4.0,6.0,-999,0.00,,,0.22,,2013-05-20 15:01:00,
2013-05-20 10:12:00,75.0,-99.9,-100.00,South,185,4.0,6.0,-999,0.00,,,0.22,,2013-05-20 15:12:00,
2013-05-20 10:22:00,75.0,-99.9,-100.00,South,185,4.0,6.0,-999,0.00,,,0.22,,2013-05-20 15:22:00,
2013-05-20 10:34:00,76.0,-99.9,-100.00,South,175,5.0,7.0,-999,0.00,,,0.22,,2013-05-20 15:34:00,
2013-05-20 10:43:00,76.0,-99.9,-100.00,South,175,5.0,7.0,-999,0.00,,,0.22,,2013-05-20 15:43:00,
2013-05-20 10:53:00,76.0,-99.9,-100.00,South,175,5.0,7.0,-999,0.00,,,0.22,,2013-05-20 15:53:00,
2013-05-20 11:03:00,77.0,-99.9,-100.00,South,180,6.0,9.0,-999,0.00,,,0.22,,2013-05-20 16:03:00,
2013-05-20 11:13:00,77.0,-99.9,-100.00,South,180,6.0,9.0,-999,0.00,,,0.22,,2013-05-20 16:13:00,
2013-05-20 11:23:00,77.0,-99.9,-100.00,South,180,6.0,9.0,-999,0.00,,,0.22,,2013-05-20 16:23:00,
2013-05-20 11:30:00,79.0,-99.9,-100.00,South,182,5.0,7.0,-999,0.00,,,0.22,,2013-05-20 16:30:00,
2013-05-20 11:33:00,78.0,-99.9,-100.00,SSW,193,4.0,6.0,-999,0.00,,,0.22,,2013-05-20 16:33:00,
2013-05-20 11:42:00,78.0,-99.9,-100.00,SSW,193,4.0,6.0,-999,0.00,,,0.22,,2013-05-20 16:42:00,
2013-05-20 11:53:00,78.0,-99.9,-100.00,SSW,193,4.0,6.0,-999,0.00,,,0.22,,2013-05-20 16:53:00,
2013-05-20 12:03:00,79.0,-99.9,-100.00,South,182,5.0,7.0,-999,0.00,,,0.22,,2013-05-20 17:03:00,
2013-05-20 12:12:00,79.0,-99.9,-100.00,South,182,5.0,7.0,-999,0.00,,,0.22,,2013-05-20 17:12:00,
2013-05-20 12:22:00,79.0,-99.9,-100.00,South,182,5.0,7.0,-999,0.00,,,0.22,,2013-05-20 17:22:00,
2013-05-20 13:02:00,80.0,-99.9,-100.00,South,176,3.0,6.0,-999,0.00,,,0.14,,2013-05-20 18:02:00,
2013-05-20 13:12:00,80.0,-99.9,-100.00,South,176,3.0,6.0,-999,0.00,,,0.14,,2013-05-20 18:12:00,
2013-05-20 13:23:00,80.0,-99.9,-100.00,South,176,3.0,6.0,-999,0.00,,,0.14,,2013-05-20 18:23:00,
2013-05-20 13:30:00,83.0,-99.9,-100.00,South,186,6.0,11.0,-999,0.00,,,0.11,,2013-05-20 18:30:00,
2013-05-20 13:33:00,82.0,-99.9,-100.00,South,186,4.0,7.0,-999,0.00,,,0.11,,2013-05-20 18:33:00,
2013-05-20 13:42:00,82.0,-99.9,-100.00,South,186,4.0,7.0,-999,0.00,,,0.11,,2013-05-20 18:42:00,
2013-05-20 13:55:00,82.0,-99.9,-100.00,South,186,4.0,7.0,-999,0.00,,,0.11,,2013-05-20 18:55:00,
2013-05-20 14:04:00,83.0,-99.9,-100.00,South,186,6.0,11.0,-999,0.00,,,0.11,,2013-05-20 19:04:00,
2013-05-20 14:12:00,83.0,-99.9,-100.00,South,186,6.0,11.0,-999,0.00,,,0.11,,2013-05-20 19:12:00,
2013-05-20 14:22:00,83.0,-99.9,-100.00,South,186,6.0,11.0,-999,0.00,,,0.11,,2013-05-20 19:22:00,
2013-05-20 15:02:00,84.0,-99.9,-100.00,South,186,3.0,7.0,-999,0.00,,,0.11,,2013-05-20 20:02:00,
2013-05-20 15:12:00,84.0,-99.9,-100.00,South,186,3.0,7.0,-999,0.00,,,0.11,,2013-05-20 20:12:00,
2013-05-20 15:22:00,84.0,-99.9,-100.00,South,186,3.0,7.0,-999,0.00,,,0.11,,2013-05-20 20:22:00,
2013-05-20 15:30:00,85.0,-99.9,-100.00,South,179,5.0,7.0,-999,0.00,,,0.11,,2013-05-20 20:30:00,
2013-05-20 15:33:00,84.0,-99.9,-100.00,SSW,197,3.0,6.0,-999,0.00,,,0.11,,2013-05-20 20:33:00,
2013-05-20 15:42:00,84.0,-99.9,-100.00,SSW,197,3.0,6.0,-999,0.00,,,0.11,,2013-05-20 20:42:00,
2013-05-20 15:52:00,84.0,-99.9,-100.00,SSW,197,3.0,6.0,-999,0.00,,,0.11,,2013-05-20 20:52:00,
2013-05-20 16:01:00,85.0,-99.9,-100.00,South,179,5.0,7.0,-999,0.00,,,0.11,,2013-05-20 21:01:00,
2013-05-20 16:11:00,85.0,-99.9,-100.00,South,179,5.0,7.0,-999,0.00,,,0.11,,2013-05-20 21:11:00,
2013-05-20 16:22:00,85.0,-99.9,-100.00,South,179,5.0,7.0,-999,0.00,,,0.11,,2013-05-20 21:22:00,
2013-05-20 17:03:00,85.0,-99.9,-100.00,SSW,200,3.0,4.0,-999,0.00,,,0.11,,2013-05-20 22:03:00,
2013-05-20 17:13:00,85.0,-99.9,-100.00,SSW,200,3.0,4.0,-999,0.00,,,0.11,,2013-05-20 22:13:00,
2013-05-20 17:23:00,85.0,-99.9,-100.00,SSW,200,3.0,4.0,-999,0.00,,,0.11,,2013-05-20 22:23:00,
2013-05-20 17:33:00,86.0,-99.9,-100.00,SSW,192,4.0,8.0,-999,0.00,,,0.11,,2013-05-20 22:33:00,
2013-05-20 17:42:00,86.0,-99.9,-100.00,SSW,192,4.0,8.0,-999,0.00,,,0.11,,2013-05-20 22:42:00,
2013-05-20 17:53:00,86.0,-99.9,-100.00,SSW,192,4.0,8.0,-999,0.00,,,0.11,,2013-05-20 22:53:00,
2013-05-20 18:03:00,85.0,-99.9,-100.00,South,184,5.0,8.0,-999,0.00,,,0.11,,2013-05-20 23:03:00,
2013-05-20 18:12:00,85.0,-99.9,-100.00,South,184,5.0,8.0,-999,0.00,,,0.11,,2013-05-20 23:12:00,
2013-05-20 18:22:00,85.0,-99.9,-100.00,South,184,5.0,8.0,-999,0.00,,,0.11,,2013-05-20 23:22:00,
2013-05-20 18:32:00,85.0,-99.9,-100.00,South,175,6.0,10.0,-999,0.00,,,0.11,,2013-05-20 23:32:00,
2013-05-20 18:42:00,85.0,-99.9,-100.00,South,175,6.0,10.0,-999,0.00,,,0.11,,2013-05-20 23:42:00,
2013-05-20 18:53:00,85.0,-99.9,-100.00,South,175,6.0,10.0,-999,0.00,,,0.11,,2013-05-20 23:53:00,
2013-05-20 19:01:00,83.0,-99.9,-100.00,South,178,6.0,8.0,-999,0.00,,,0.11,,2013-05-21 00:01:00,
2013-05-20 19:12:00,83.0,-99.9,-100.00,South,178,6.0,8.0,-999,0.00,,,0.11,,2013-05-21 00:12:00,
2013-05-20 19:22:00,83.0,-99.9,-100.00,South,178,6.0,8.0,-999,0.00,,,0.11,,2013-05-21 00:22:00,
2013-05-20 19:32:00,82.0,-99.9,-100.00,SSE,157,6.0,11.0,-999,0.00,,,0.11,,2013-05-21 00:32:00,
2013-05-20 19:42:00,82.0,-99.9,-100.00,SSE,157,6.0,11.0,-999,0.00,,,0.11,,2013-05-21 00:42:00,
2013-05-20 19:52:00,82.0,-99.9,-100.00,SSE,157,6.0,11.0,-999,0.00,,,0.11,,2013-05-21 00:52:00,
2013-05-20 20:01:00,81.0,-99.9,-100.00,SSW,208,0.0,1.0,-999,0.00,,,-99.99,,2013-05-21 01:01:00,
2013-05-20 20:12:00,81.0,-99.9,-100.00,SSW,208,0.0,1.0,-999,0.00,,,-99.99,,2013-05-21 01:12:00,
2013-05-20 20:22:00,81.0,-99.9,-100.00,SSW,208,0.0,1.0,-999,0.00,,,-99.99,,2013-05-21 01:22:00,
2013-05-20 20:32:00,82.0,-99.9,-100.00,SSE,158,9.0,19.0,-999,0.00,,,0.11,,2013-05-21 01:32:00,
2013-05-20 20:42:00,82.0,-99.9,-100.00,SSE,158,9.0,19.0,-999,0.00,,,0.11,,2013-05-21 01:42:00,
2013-05-20 20:53:00,82.0,-99.9,-100.00,SSE,158,9.0,19.0,-999,0.00,,,0.11,,2013-05-21 01:53:00,
2013-05-20 21:02:00,77.0,-99.9,-100.00,SE,142,22.0,50.0,-999,0.00,,,0.11,,2013-05-21 02:02:00,
2013-05-20 21:11:00,77.0,-99.9,-100.00,SE,142,22.0,50.0,-999,0.00,,,0.11,,2013-05-21 02:11:00,
2013-05-20 21:22:00,77.0,-99.9,-100.00,SE,142,22.0,50.0,-999,0.00,,,0.11,,2013-05-21 02:22:00,
2013-05-20 21:32:00,77.0,-99.9,-100.00,SSE,156,13.0,21.0,-999,0.00,,,0.11,,2013-05-21 02:32:00,
2013-05-20 21:42:00,77.0,-99.9,-100.00,SSE,156,13.0,21.0,-999,0.00,,,0.11,,2013-05-21 02:42:00,
2013-05-20 21:52:00,77.0,-99.9,-100.00,SSE,156,13.0,21.0,-999,0.00,,,0.11,,2013-05-21 02:52:00,
2013-05-20 22:02:00,76.0,-99.9,-100.00,South,178,2.0,4.0,-999,0.00,,,0.11,,2013-05-21 03:02:00,
2013-05-20 22:11:00,76.0,-99.9,-100.00,South,178,2.0,4.0,-999,0.00,,,0.11,,2013-05-21 03:11:00,
2013-05-20 22:22:00,76.0,-99.9,-100.00,South,178,2.0,4.0,-999,0.00,,,0.11,,2013-05-21 03:22:00,
2013-05-20 22:30:00,75.0,-99.9,-100.00,SE,143,8.0,12.0,-999,0.00,,,0.11,,2013-05-21 03:30:00,
2013-05-20 22:33:00,74.0,-99.9,-100.00,South,187,1.0,3.0,-999,0.00,,,0.11,,2013-05-21 03:33:00,
2013-05-20 22:43:00,74.0,-99.9,-100.00,South,187,1.0,3.0,-999,0.00,,,0.11,,2013-05-21 03:43:00,
2013-05-20 22:54:00,74.0,-99.9,-100.00,South,187,1.0,3.0,-999,0.00,,,0.11,,2013-05-21 03:54:00,
2013-05-20 23:03:00,75.0,-99.9,-100.00,SE,143,8.0,12.0,-999,0.00,,,0.11,,2013-05-21 04:03:00,
2013-05-20 23:13:00,75.0,-99.9,-100.00,SE,143,8.0,12.0,-999,0.00,,,0.11,,2013-05-21 04:13:00,
2013-05-20 23:23:00,75.0,-99.9,-100.00,SE,143,8.0,12.0,-999,0.00,,,0.11,,2013-05-21 04:23:00,